createdAt,value
2024-02-26T00:04:42.989Z,99057.22
2024-02-26T00:09:45.832Z,99059.16
2024-02-26T00:14:50.667Z,99060.25
2024-02-26T00:19:55.140Z,99051.69
2024-02-26T00:24:57.978Z,99039.44
2024-02-26T00:30:00.873Z,99038.00
2024-02-26T00:35:05.454Z,99038.44
2024-02-26T00:40:10.017Z,99035.91
2024-02-26T00:45:12.865Z,99027.28
2024-02-26T00:50:17.594Z,99023.06
2024-02-26T00:55:20.439Z,99014.34
2024-02-26T01:00:23.531Z,99009.41
2024-02-26T01:05:27.793Z,99014.06
2024-02-26T01:10:30.657Z,99007.03
2024-02-26T01:15:33.448Z,99006.47
2024-02-26T01:20:37.930Z,98995.19
2024-02-26T01:25:41.062Z,98991.81
2024-02-26T01:30:44.006Z,98984.91
2024-02-26T01:35:48.676Z,98991.41
2024-02-26T01:40:51.620Z,98975.47
2024-02-26T01:45:54.774Z,98972.09
2024-02-26T01:50:59.257Z,98966.72
2024-02-26T01:56:02.406Z,98950.97
2024-02-26T02:01:05.537Z,98955.47
2024-02-26T02:06:09.833Z,98946.75
2024-02-26T02:11:13.714Z,98951.38
2024-02-26T02:16:16.586Z,98944.50
2024-02-26T02:21:20.819Z,98946.47
2024-02-26T02:26:23.781Z,98947.44
2024-02-26T02:31:26.611Z,98952.81
2024-02-26T02:36:30.877Z,98955.75
2024-02-26T02:41:33.759Z,98960.25
2024-02-26T02:46:36.555Z,98960.25
2024-02-26T02:51:40.778Z,98974.59
2024-02-26T02:56:43.663Z,98978.28
2024-02-26T03:01:46.478Z,98973.22
2024-02-26T03:06:50.721Z,98985.72
2024-02-26T03:11:53.723Z,98995.59
2024-02-26T03:16:56.935Z,98988.56
2024-02-26T03:22:01.107Z,98989.78
2024-02-26T03:27:06.095Z,98991.63
2024-02-26T03:32:08.974Z,98992.47
2024-02-26T03:37:13.214Z,98991.78
2024-02-26T03:42:17.550Z,98998.09
2024-02-26T03:47:20.418Z,99002.75
2024-02-26T03:52:24.624Z,99010.78
2024-02-26T04:04:25.291Z,99012.75
2024-02-26T04:09:29.537Z,99009.94
2024-02-26T04:14:32.376Z,99011.88
2024-02-26T04:19:35.333Z,99010.19
2024-02-26T04:24:39.758Z,99011.03
2024-02-26T04:29:42.615Z,99009.44
2024-02-26T04:34:45.412Z,99006.06
2024-02-26T04:39:51.269Z,99002.69
2024-02-26T04:44:54.265Z,98994.69
2024-02-26T04:49:57.177Z,98998.19
2024-02-26T04:55:01.549Z,99008.19
2024-02-26T05:00:06.118Z,99004.78
2024-02-26T05:05:10.205Z,99016.31
2024-02-26T05:10:14.493Z,99023.63
2024-02-26T05:15:19.639Z,99023.78
2024-02-26T05:20:22.769Z,99030.94
2024-02-26T05:25:27.023Z,99027.56
2024-02-26T05:30:30.299Z,99029.41
2024-02-26T05:35:33.178Z,99033.91
2024-02-26T05:40:37.750Z,99023.31
2024-02-26T05:45:40.816Z,99027.81
2024-02-26T05:50:43.749Z,99029.66
2024-02-26T05:55:47.979Z,99025.28
2024-02-26T06:00:51.066Z,99026.41
2024-02-26T06:05:54.138Z,99021.06
2024-02-26T06:10:58.426Z,99022.91
2024-02-26T06:16:01.219Z,99025.72
2024-02-26T06:21:04.302Z,99023.88
2024-02-26T06:26:08.540Z,99031.06
2024-02-26T06:31:11.347Z,99030.06
2024-02-26T06:36:14.185Z,99030.91
2024-02-26T06:41:18.376Z,99034.31
2024-02-26T06:46:21.220Z,99038.66
2024-02-26T06:51:24.326Z,99045.69
2024-02-26T06:56:29.416Z,99051.78
2024-02-26T07:01:32.511Z,99056.13
2024-02-26T07:06:35.404Z,99066.56
2024-02-26T07:11:40.639Z,99063.59
2024-02-26T07:16:43.456Z,99061.06
2024-02-26T07:21:46.257Z,99060.69
2024-02-26T07:26:50.510Z,99056.72
2024-02-26T07:31:53.273Z,99056.59
2024-02-26T07:36:56.120Z,99068.03
2024-02-26T07:42:00.473Z,99068.63
2024-02-26T07:47:04.022Z,99074.66
2024-02-26T07:52:07.134Z,99076.28
2024-02-26T07:57:11.360Z,99076.25
2024-02-26T08:02:14.120Z,99081.63
2024-02-26T08:07:17.951Z,99096.03
2024-02-26T08:12:22.380Z,99083.00
2024-02-26T08:17:25.358Z,99074.78
2024-02-26T08:22:28.191Z,99077.84
2024-02-26T08:27:32.415Z,99077.44
2024-02-26T08:32:35.224Z,99084.28
2024-02-26T08:37:38.056Z,99090.84
2024-02-26T08:42:42.244Z,99088.53
2024-02-26T08:47:46.874Z,99088.25
2024-02-26T08:52:51.903Z,99095.00
2024-02-26T08:57:56.122Z,99094.47
2024-02-26T09:03:00.678Z,99085.88
2024-02-26T09:08:05.244Z,99093.19
2024-02-26T09:13:09.430Z,99092.81
2024-02-26T09:18:12.407Z,99090.81
2024-02-26T09:23:15.411Z,99093.22
2024-02-26T09:28:19.563Z,99084.78
2024-02-26T09:33:23.298Z,99086.31
2024-02-26T09:38:26.345Z,99086.06
2024-02-26T09:43:31.048Z,99086.78
2024-02-26T09:48:34.812Z,99089.00
2024-02-26T09:53:40.596Z,99083.81
2024-02-26T09:58:46.744Z,99092.28
2024-02-26T10:03:52.886Z,99086.50
2024-02-26T10:08:56.630Z,99090.63
2024-02-26T10:14:00.961Z,99091.03
2024-02-26T10:19:03.985Z,99095.13
2024-02-26T10:24:07.160Z,99099.06
2024-02-26T10:29:11.358Z,99107.63
2024-02-26T10:34:14.287Z,99108.38
2024-02-26T10:39:17.331Z,99117.94
2024-02-26T10:44:21.609Z,99110.44
2024-02-26T10:49:25.004Z,99119.06
2024-02-26T10:54:29.726Z,99108.91
2024-02-26T10:59:34.011Z,99109.59
2024-02-26T11:04:36.910Z,99122.84
2024-02-26T11:09:44.672Z,99116.38
2024-02-26T11:14:49.985Z,99123.41
2024-02-26T11:19:54.829Z,99117.75
2024-02-26T11:24:58.617Z,99114.69
2024-02-26T11:30:03.558Z,99109.84
2024-02-26T11:35:08.453Z,99105.75
2024-02-26T11:40:13.816Z,99095.59
2024-02-26T11:46:00.485Z,99085.97
2024-02-26T11:51:04.052Z,99080.84
2024-02-26T11:56:27.345Z,99087.47
2024-02-26T12:01:43.446Z,99080.72
2024-02-26T12:06:47.971Z,99096.50
2024-02-26T12:11:51.036Z,99100.88
2024-02-26T12:16:55.294Z,99098.19
2024-02-26T12:21:58.283Z,99097.50
2024-02-26T12:27:01.386Z,99100.34
2024-02-26T12:32:08.304Z,99107.25
2024-02-26T12:37:11.728Z,99101.47
2024-02-26T12:42:14.572Z,99112.50
2024-02-26T12:47:19.568Z,99116.44
2024-02-26T12:52:22.937Z,99128.69
2024-02-26T12:57:26.463Z,99118.81
2024-02-26T13:02:31.495Z,99125.75
2024-02-26T13:07:34.416Z,99140.56
2024-02-26T13:12:37.475Z,99136.16
2024-02-26T13:17:41.834Z,99142.78
2024-02-26T13:22:44.741Z,99162.72
2024-02-26T13:27:47.561Z,99163.78
2024-02-26T13:32:51.813Z,99163.53
2024-02-26T13:37:54.934Z,99176.59
2024-02-26T13:42:59.041Z,99173.06
2024-02-26T13:48:04.257Z,99190.69
2024-02-26T13:53:07.295Z,99190.34
2024-02-26T13:58:10.488Z,99192.75
2024-02-26T14:03:14.745Z,99195.91
2024-02-26T14:08:17.782Z,99186.97
2024-02-26T14:13:20.681Z,99197.72
2024-02-26T14:18:25.556Z,99206.94
2024-02-26T14:23:28.850Z,99217.38
2024-02-26T14:28:36.543Z,99231.97
2024-02-26T14:33:41.780Z,99234.41
2024-02-26T14:38:46.018Z,99224.94
2024-02-26T14:43:48.831Z,99225.94
2024-02-26T14:48:53.112Z,99225.09
2024-02-26T14:53:56.223Z,99215.41
2024-02-26T14:58:59.235Z,99216.09
2024-02-26T15:04:05.103Z,99212.56
2024-02-26T15:09:08.909Z,99220.16
2024-02-26T15:14:11.831Z,99230.13
2024-02-26T15:19:17.849Z,99225.53
2024-02-26T15:24:21.046Z,99227.84
2024-02-26T15:29:23.933Z,99242.59
2024-02-26T15:34:28.188Z,99252.84
2024-02-26T15:39:31.256Z,99252.31
2024-02-26T15:44:34.071Z,99243.13
2024-02-26T15:49:38.497Z,99250.50
2024-02-26T15:54:41.721Z,99259.66
2024-02-26T15:59:44.714Z,99274.78
2024-02-26T16:04:49.369Z,99289.59
2024-02-26T16:09:53.295Z,99305.81
2024-02-26T16:14:57.031Z,99319.63
2024-02-26T16:20:01.535Z,99332.75
2024-02-26T16:25:05.012Z,99350.50
2024-02-26T16:30:08.961Z,99361.03
2024-02-26T16:35:13.259Z,99367.91
2024-02-26T16:40:17.601Z,99365.78
2024-02-26T16:45:21.771Z,99371.69
2024-02-26T16:50:27.429Z,99381.09
2024-02-26T16:55:30.501Z,99387.81
2024-02-26T17:00:33.518Z,99393.56
2024-02-26T17:05:37.812Z,99401.03
2024-02-26T17:10:40.711Z,99411.00
2024-02-26T17:15:43.505Z,99416.25
2024-02-26T17:20:47.673Z,99427.06
2024-02-26T17:25:50.737Z,99434.25
2024-02-26T17:30:53.583Z,99436.34
2024-02-26T17:35:57.838Z,99443.25
2024-02-26T17:41:00.892Z,99449.94
2024-02-26T17:46:03.829Z,99458.91
2024-02-26T17:51:08.310Z,99455.41
2024-02-26T17:56:11.389Z,99455.50
2024-02-26T18:01:14.339Z,99460.91
2024-02-26T18:06:18.645Z,99462.50
2024-02-26T18:11:21.580Z,99476.22
2024-02-26T18:16:24.626Z,99477.53
2024-02-26T18:21:28.952Z,99481.47
2024-02-26T18:26:31.816Z,99494.34
2024-02-26T18:31:34.662Z,99494.75
2024-02-26T18:36:38.950Z,99495.22
2024-02-26T18:41:41.814Z,99502.03
2024-02-26T18:46:46.505Z,99502.63
2024-02-26T18:51:50.699Z,99506.72
2024-02-26T18:56:53.600Z,99503.19
2024-02-26T19:01:56.429Z,99517.75
2024-02-26T19:07:00.641Z,99533.84
2024-02-26T19:12:03.677Z,99536.53
2024-02-26T19:17:06.692Z,99546.97
2024-02-26T19:22:13.297Z,99550.50
2024-02-26T19:27:17.175Z,99547.66
2024-02-26T19:32:20.032Z,99552.78
2024-02-26T19:44:22.531Z,99562.69
2024-02-26T19:49:25.433Z,99570.75
2024-02-26T19:54:28.346Z,99576.09
2024-02-26T19:59:32.554Z,99587.53
2024-02-26T20:04:35.930Z,99588.41
2024-02-26T20:09:39.610Z,99597.16
2024-02-26T20:14:45.812Z,99603.22
2024-02-26T20:19:48.834Z,99610.28
2024-02-26T20:24:51.762Z,99610.88
2024-02-26T20:29:57.834Z,99615.53
2024-02-26T20:35:00.794Z,99628.53
2024-02-26T20:40:07.097Z,99640.81
2024-02-26T20:45:11.754Z,99641.41
2024-02-26T20:50:14.642Z,99647.03
2024-02-26T20:55:17.444Z,99651.16
2024-02-26T21:00:22.284Z,99647.63
2024-02-26T21:05:25.270Z,99652.00
2024-02-26T21:10:30.553Z,99652.72
2024-02-26T21:15:34.834Z,99657.09
2024-02-26T21:20:37.674Z,99660.47
2024-02-26T21:25:40.541Z,99671.22
2024-02-26T21:30:44.853Z,99679.28
2024-02-26T21:35:47.775Z,99677.31
2024-02-26T21:40:50.631Z,99680.72
2024-02-26T21:45:54.773Z,99688.47
2024-02-26T21:50:57.615Z,99698.22
2024-02-26T21:56:00.813Z,99716.03
2024-02-26T22:01:05.669Z,99721.41
2024-02-26T22:06:10.463Z,99724.09
2024-02-26T22:11:13.401Z,99731.19
2024-02-26T22:16:17.742Z,99736.56
2024-02-26T22:21:20.575Z,99745.47
2024-02-26T22:26:23.468Z,99741.78
2024-02-26T22:31:28.835Z,99749.84
2024-02-26T22:36:33.820Z,99749.69
2024-02-26T22:41:41.601Z,99752.25
2024-02-26T22:46:45.824Z,99755.91
2024-02-26T22:51:49.777Z,99759.44
2024-02-26T22:56:52.607Z,99759.59
2024-02-26T23:01:56.811Z,99764.13
2024-02-26T23:07:00.343Z,99772.69
2024-02-26T23:12:03.243Z,99767.75
2024-02-26T23:17:07.516Z,99780.56
2024-02-26T23:22:10.364Z,99776.84
2024-02-26T23:27:13.202Z,99773.13
2024-02-26T23:32:17.343Z,99787.94
2024-02-26T23:37:20.077Z,99789.59
2024-02-26T23:42:23.028Z,99792.22
2024-02-26T23:47:28.234Z,99802.59
2024-02-26T23:52:31.066Z,99795.09
2024-02-26T23:57:34.013Z,99798.25
